sensor_id;sensor_type;location;lat;lon;timestamp;temperature;humidity
78076;DHT22;67714;52.546;13.422;2023-02-28T00:01:23;3.7;79.5
78076;DHT22;67714;52.546;13.422;2023-02-28T00:03:24;3.7;79.4
78076;DHT22;67714;52.546;13.422;2023-02-28T00:05:26;3.7;79.2
78076;DHT22;67714;52.546;13.422;2023-02-28T00:07:28;3.7;79.3
78076;DHT22;67714;52.546;13.422;2023-02-28T00:09:29;3.7;79.2
78076;DHT22;67714;52.546;13.422;2023-02-28T00:11:31;3.7;79.4
78076;DHT22;67714;52.546;13.422;2023-02-28T00:13:34;3.7;79.4
78076;DHT22;67714;52.546;13.422;2023-02-28T00:15:36;3.7;79.4
78076;DHT22;67714;52.546;13.422;2023-02-28T00:17:37;3.7;79.4
78076;DHT22;67714;52.546;13.422;2023-02-28T00:19:38;3.7;79.4
78076;DHT22;67714;52.546;13.422;2023-02-28T00:21:40;3.7;79.6
78076;DHT22;67714;52.546;13.422;2023-02-28T00:23:41;3.7;79.6
78076;DHT22;67714;52.546;13.422;2023-02-28T00:25:42;3.7;79.6
78076;DHT22;67714;52.546;13.422;2023-02-28T00:27:44;3.7;79.4
78076;DHT22;67714;52.546;13.422;2023-02-28T00:29:46;3.7;79.3
78076;DHT22;67714;52.546;13.422;2023-02-28T00:31:47;3.7;79.3
78076;DHT22;67714;52.546;13.422;2023-02-28T00:33:49;3.8;79.4
78076;DHT22;67714;52.546;13.422;2023-02-28T00:35:50;3.8;79.2
78076;DHT22;67714;52.546;13.422;2023-02-28T00:37:51;3.8;79.1
78076;DHT22;67714;52.546;13.422;2023-02-28T00:39:52;3.8;78.9
78076;DHT22;67714;52.546;13.422;2023-02-28T00:41:53;3.9;78.7
78076;DHT22;67714;52.546;13.422;2023-02-28T00:43:54;3.9;78.3
78076;DHT22;67714;52.546;13.422;2023-02-28T00:45:56;4;78.2
78076;DHT22;67714;52.546;13.422;2023-02-28T00:47:57;4;77.8
78076;DHT22;67714;52.546;13.422;2023-02-28T00:49:58;3.9;78
78076;DHT22;67714;52.546;13.422;2023-02-28T00:51:59;3.9;78
78076;DHT22;67714;52.546;13.422;2023-02-28T00:54:00;3.9;77.9
78076;DHT22;67714;52.546;13.422;2023-02-28T00:56:02;3.9;78.1
78076;DHT22;67714;52.546;13.422;2023-02-28T00:58:04;3.9;78.2
78076;DHT22;67714;52.546;13.422;2023-02-28T01:00:06;3.9;78.2
78076;DHT22;67714;52.546;13.422;2023-02-28T01:02:07;3.9;78.1
78076;DHT22;67714;52.546;13.422;2023-02-28T01:04:09;3.8;78.2
78076;DHT22;67714;52.546;13.422;2023-02-28T01:06:11;3.8;78.1
78076;DHT22;67714;52.546;13.422;2023-02-28T01:08:12;3.8;78.3
78076;DHT22;67714;52.546;13.422;2023-02-28T01:10:13;3.7;78.6
78076;DHT22;67714;52.546;13.422;2023-02-28T01:12:15;3.7;78.5
78076;DHT22;67714;52.546;13.422;2023-02-28T01:14:17;3.6;78.6
78076;DHT22;67714;52.546;13.422;2023-02-28T01:16:18;3.6;78.5
78076;DHT22;67714;52.546;13.422;2023-02-28T01:18:21;3.5;78.9
78076;DHT22;67714;52.546;13.422;2023-02-28T01:20:23;3.5;79.1
78076;DHT22;67714;52.546;13.422;2023-02-28T01:22:24;3.4;79.2
78076;DHT22;67714;52.546;13.422;2023-02-28T01:24:25;3.3;79.3
78076;DHT22;67714;52.546;13.422;2023-02-28T01:26:27;3.2;79.9
78076;DHT22;67714;52.546;13.422;2023-02-28T01:28:28;3.2;80.2
78076;DHT22;67714;52.546;13.422;2023-02-28T01:30:29;3.2;80.5
78076;DHT22;67714;52.546;13.422;2023-02-28T01:32:30;3.2;80.7
78076;DHT22;67714;52.546;13.422;2023-02-28T01:34:31;3.2;81
78076;DHT22;67714;52.546;13.422;2023-02-28T01:36:32;3.2;80.9
78076;DHT22;67714;52.546;13.422;2023-02-28T01:38:34;3.2;80.9
78076;DHT22;67714;52.546;13.422;2023-02-28T01:40:35;3.2;81.2
78076;DHT22;67714;52.546;13.422;2023-02-28T01:42:36;3.2;81.5
78076;DHT22;67714;52.546;13.422;2023-02-28T01:44:57;3.2;81.3
78076;DHT22;67714;52.546;13.422;2023-02-28T01:46:58;3.2;81.4
78076;DHT22;67714;52.546;13.422;2023-02-28T01:49:04;3.3;81.3
78076;DHT22;67714;52.546;13.422;2023-02-28T01:51:08;3.3;80.9
78076;DHT22;67714;52.546;13.422;2023-02-28T01:53:14;3.2;81.2
78076;DHT22;67714;52.546;13.422;2023-02-28T01:55:18;3.2;81.4
78076;DHT22;67714;52.546;13.422;2023-02-28T01:57:24;3.1;81.9
78076;DHT22;67714;52.546;13.422;2023-02-28T01:59:32;3.1;81.9
78076;DHT22;67714;52.546;13.422;2023-02-28T02:01:35;3.1;81.8
78076;DHT22;67714;52.546;13.422;2023-02-28T02:03:36;3.1;82.2
78076;DHT22;67714;52.546;13.422;2023-02-28T02:05:39;3;82.2
78076;DHT22;67714;52.546;13.422;2023-02-28T02:07:42;3;82.1
78076;DHT22;67714;52.546;13.422;2023-02-28T02:09:44;2.9;82.5
78076;DHT22;67714;52.546;13.422;2023-02-28T02:11:46;2.8;83
78076;DHT22;67714;52.546;13.422;2023-02-28T02:13:56;2.8;83.4
78076;DHT22;67714;52.546;13.422;2023-02-28T02:16:09;2.8;83.2
78076;DHT22;67714;52.546;13.422;2023-02-28T02:18:17;2.8;83.3
78076;DHT22;67714;52.546;13.422;2023-02-28T02:20:32;2.7;83.5
78076;DHT22;67714;52.546;13.422;2023-02-28T02:22:47;2.7;83.5
78076;DHT22;67714;52.546;13.422;2023-02-28T02:25:04;2.6;83.7
78076;DHT22;67714;52.546;13.422;2023-02-28T02:27:17;2.4;84.4
78076;DHT22;67714;52.546;13.422;2023-02-28T02:29:31;2.3;85.2
78076;DHT22;67714;52.546;13.422;2023-02-28T02:31:48;2.3;85.8
78076;DHT22;67714;52.546;13.422;2023-02-28T02:35:05;2.2;86.1
78076;DHT22;67714;52.546;13.422;2023-02-28T02:37:00;2.2;86.7
78076;DHT22;67714;52.546;13.422;2023-02-28T02:39:06;2.1;87
78076;DHT22;67714;52.546;13.422;2023-02-28T02:41:14;2.1;87
78076;DHT22;67714;52.546;13.422;2023-02-28T02:43:19;2;87.8
78076;DHT22;67714;52.546;13.422;2023-02-28T02:45:25;2.1;87.7
78076;DHT22;67714;52.546;13.422;2023-02-28T02:47:30;2.2;87.2
78076;DHT22;67714;52.546;13.422;2023-02-28T02:49:36;2.2;86.9
78076;DHT22;67714;52.546;13.422;2023-02-28T02:51:38;2.1;86.9
78076;DHT22;67714;52.546;13.422;2023-02-28T02:53:42;2;87.4
78076;DHT22;67714;52.546;13.422;2023-02-28T02:55:47;2;88
78076;DHT22;67714;52.546;13.422;2023-02-28T02:57:52;1.9;88.4
78076;DHT22;67714;52.546;13.422;2023-02-28T02:59:55;1.9;88.5
78076;DHT22;67714;52.546;13.422;2023-02-28T03:02:01;1.8;88.7
78076;DHT22;67714;52.546;13.422;2023-02-28T03:04:06;1.8;89.3
78076;DHT22;67714;52.546;13.422;2023-02-28T03:06:08;1.7;89.7
78076;DHT22;67714;52.546;13.422;2023-02-28T03:08:09;1.7;89.8
78076;DHT22;67714;52.546;13.422;2023-02-28T03:10:28;1.7;89.9
78076;DHT22;67714;52.546;13.422;2023-02-28T03:12:33;1.7;89.7
78076;DHT22;67714;52.546;13.422;2023-02-28T03:14:47;1.6;90.1
78076;DHT22;67714;52.546;13.422;2023-02-28T03:16:59;1.6;90.3
78076;DHT22;67714;52.546;13.422;2023-02-28T03:19:06;1.6;90.6
78076;DHT22;67714;52.546;13.422;2023-02-28T03:21:14;1.6;90.5
78076;DHT22;67714;52.546;13.422;2023-02-28T03:23:23;1.6;90.5
78076;DHT22;67714;52.546;13.422;2023-02-28T03:25:30;1.5;90.8
78076;DHT22;67714;52.546;13.422;2023-02-28T03:27:36;1.5;91.1
78076;DHT22;67714;52.546;13.422;2023-02-28T03:29:43;1.4;91.3
78076;DHT22;67714;52.546;13.422;2023-02-28T03:31:49;1.4;91.5
78076;DHT22;67714;52.546;13.422;2023-02-28T03:33:55;1.4;91.9
78076;DHT22;67714;52.546;13.422;2023-02-28T03:36:02;1.5;92
78076;DHT22;67714;52.546;13.422;2023-02-28T03:38:08;1.4;91.8
78076;DHT22;67714;52.546;13.422;2023-02-28T03:40:13;1.4;91.8
78076;DHT22;67714;52.546;13.422;2023-02-28T03:42:20;1.4;92.2
78076;DHT22;67714;52.546;13.422;2023-02-28T03:44:24;1.3;92.4
78076;DHT22;67714;52.546;13.422;2023-02-28T03:46:31;1.3;92.6
78076;DHT22;67714;52.546;13.422;2023-02-28T03:48:38;1.4;92.6
78076;DHT22;67714;52.546;13.422;2023-02-28T03:50:42;1.3;92.7
78076;DHT22;67714;52.546;13.422;2023-02-28T03:52:47;1.3;92.7
78076;DHT22;67714;52.546;13.422;2023-02-28T03:54:53;1.3;93.1
78076;DHT22;67714;52.546;13.422;2023-02-28T03:56:59;1.4;92.8
78076;DHT22;67714;52.546;13.422;2023-02-28T03:59:05;1.4;92.7
78076;DHT22;67714;52.546;13.422;2023-02-28T04:01:10;1.4;92.4
78076;DHT22;67714;52.546;13.422;2023-02-28T04:03:13;1.4;92.4
78076;DHT22;67714;52.546;13.422;2023-02-28T04:05:14;1.4;92.7
78076;DHT22;67714;52.546;13.422;2023-02-28T04:07:16;1.4;92.7
78076;DHT22;67714;52.546;13.422;2023-02-28T04:09:18;1.4;92.9
78076;DHT22;67714;52.546;13.422;2023-02-28T04:11:22;1.3;92.9
78076;DHT22;67714;52.546;13.422;2023-02-28T04:13:23;1.3;93.1
78076;DHT22;67714;52.546;13.422;2023-02-28T04:15:25;1.2;93.7
78076;DHT22;67714;52.546;13.422;2023-02-28T04:17:26;1.2;93.8
78076;DHT22;67714;52.546;13.422;2023-02-28T04:19:27;1.2;93.8
78076;DHT22;67714;52.546;13.422;2023-02-28T04:21:28;1.1;94
78076;DHT22;67714;52.546;13.422;2023-02-28T04:23:30;1.1;94.2
78076;DHT22;67714;52.546;13.422;2023-02-28T04:25:31;1.1;94.4
78076;DHT22;67714;52.546;13.422;2023-02-28T04:27:33;1.1;94.6
78076;DHT22;67714;52.546;13.422;2023-02-28T04:29:34;1.1;94.6
78076;DHT22;67714;52.546;13.422;2023-02-28T04:31:35;1.1;94.7
78076;DHT22;67714;52.546;13.422;2023-02-28T04:33:37;1.1;95.1
78076;DHT22;67714;52.546;13.422;2023-02-28T04:35:38;1;95.1
78076;DHT22;67714;52.546;13.422;2023-02-28T04:37:39;1;95.2
78076;DHT22;67714;52.546;13.422;2023-02-28T04:39:41;1;95.1
78076;DHT22;67714;52.546;13.422;2023-02-28T04:41:43;1;95.1
78076;DHT22;67714;52.546;13.422;2023-02-28T04:43:44;1;95.7
78076;DHT22;67714;52.546;13.422;2023-02-28T04:45:45;1;95.3
78076;DHT22;67714;52.546;13.422;2023-02-28T04:47:46;1;95.1
78076;DHT22;67714;52.546;13.422;2023-02-28T04:49:47;1;95.4
78076;DHT22;67714;52.546;13.422;2023-02-28T04:51:48;0.9;95.4
78076;DHT22;67714;52.546;13.422;2023-02-28T04:53:50;1;95.9
78076;DHT22;67714;52.546;13.422;2023-02-28T04:55:51;1;96
78076;DHT22;67714;52.546;13.422;2023-02-28T04:57:52;1;95.5
78076;DHT22;67714;52.546;13.422;2023-02-28T04:59:53;1;95.1
78076;DHT22;67714;52.546;13.422;2023-02-28T05:01:55;1;95.3
78076;DHT22;67714;52.546;13.422;2023-02-28T05:03:57;1.1;95.1
78076;DHT22;67714;52.546;13.422;2023-02-28T05:05:59;1.1;94.9
78076;DHT22;67714;52.546;13.422;2023-02-28T05:08:00;1.1;95.1
78076;DHT22;67714;52.546;13.422;2023-02-28T05:10:01;1.1;95
78076;DHT22;67714;52.546;13.422;2023-02-28T05:12:02;1.1;94.8
78076;DHT22;67714;52.546;13.422;2023-02-28T05:14:06;1.1;94.6
78076;DHT22;67714;52.546;13.422;2023-02-28T05:16:07;1.1;94.6
78076;DHT22;67714;52.546;13.422;2023-02-28T05:18:08;1.1;94.5
78076;DHT22;67714;52.546;13.422;2023-02-28T05:20:10;1.1;94.5
78076;DHT22;67714;52.546;13.422;2023-02-28T05:22:13;1.2;94.4
78076;DHT22;67714;52.546;13.422;2023-02-28T05:24:14;1.2;94
78076;DHT22;67714;52.546;13.422;2023-02-28T05:26:15;1.2;94.1
78076;DHT22;67714;52.546;13.422;2023-02-28T05:28:17;1.1;94.1
78076;DHT22;67714;52.546;13.422;2023-02-28T05:30:19;1.1;94.1
78076;DHT22;67714;52.546;13.422;2023-02-28T05:32:20;1.1;94.3
78076;DHT22;67714;52.546;13.422;2023-02-28T05:34:22;1;94.3
78076;DHT22;67714;52.546;13.422;2023-02-28T05:36:23;0.9;94.9
78076;DHT22;67714;52.546;13.422;2023-02-28T05:38:24;0.9;94.9
78076;DHT22;67714;52.546;13.422;2023-02-28T05:40:26;0.8;95.2
78076;DHT22;67714;52.546;13.422;2023-02-28T05:42:28;0.8;95.5
78076;DHT22;67714;52.546;13.422;2023-02-28T05:44:30;0.8;95.6
78076;DHT22;67714;52.546;13.422;2023-02-28T05:46:31;0.8;95.8
78076;DHT22;67714;52.546;13.422;2023-02-28T05:48:34;0.8;96
78076;DHT22;67714;52.546;13.422;2023-02-28T05:50:36;0.8;96.1
78076;DHT22;67714;52.546;13.422;2023-02-28T05:52:37;0.8;96
78076;DHT22;67714;52.546;13.422;2023-02-28T05:54:39;0.7;96
78076;DHT22;67714;52.546;13.422;2023-02-28T05:56:41;0.7;96.4
78076;DHT22;67714;52.546;13.422;2023-02-28T05:58:42;0.8;96.7
78076;DHT22;67714;52.546;13.422;2023-02-28T06:00:43;0.8;96.6
78076;DHT22;67714;52.546;13.422;2023-02-28T06:02:44;0.8;96.5
78076;DHT22;67714;52.546;13.422;2023-02-28T06:04:46;0.8;96.5
78076;DHT22;67714;52.546;13.422;2023-02-28T06:06:48;0.8;96.7
78076;DHT22;67714;52.546;13.422;2023-02-28T06:08:49;0.8;96.8
78076;DHT22;67714;52.546;13.422;2023-02-28T06:10:51;0.8;96.6
78076;DHT22;67714;52.546;13.422;2023-02-28T06:12:52;0.9;96.5
78076;DHT22;67714;52.546;13.422;2023-02-28T06:14:53;0.9;96.3
78076;DHT22;67714;52.546;13.422;2023-02-28T06:16:54;0.9;96
78076;DHT22;67714;52.546;13.422;2023-02-28T06:18:57;0.9;96.1
78076;DHT22;67714;52.546;13.422;2023-02-28T06:20:59;0.9;96.3
78076;DHT22;67714;52.546;13.422;2023-02-28T06:23:00;1;96.5
78076;DHT22;67714;52.546;13.422;2023-02-28T06:25:01;1;96.4
78076;DHT22;67714;52.546;13.422;2023-02-28T06:27:03;1;96.2
78076;DHT22;67714;52.546;13.422;2023-02-28T06:29:04;1.1;96
78076;DHT22;67714;52.546;13.422;2023-02-28T06:31:06;1.1;96.3
78076;DHT22;67714;52.546;13.422;2023-02-28T06:33:08;1.2;95.9
78076;DHT22;67714;52.546;13.422;2023-02-28T06:35:09;1.5;96.7
78076;DHT22;67714;52.546;13.422;2023-02-28T06:37:10;2.2;97.5
78076;DHT22;67714;52.546;13.422;2023-02-28T06:39:11;3.2;94.5
78076;DHT22;67714;52.546;13.422;2023-02-28T06:41:13;4.1;89.7
78076;DHT22;67714;52.546;13.422;2023-02-28T06:43:14;4.8;85.5
78076;DHT22;67714;52.546;13.422;2023-02-28T06:45:15;5.2;82.4
78076;DHT22;67714;52.546;13.422;2023-02-28T06:47:17;5.7;80.3
78076;DHT22;67714;52.546;13.422;2023-02-28T06:49:18;6.2;77.5
78076;DHT22;67714;52.546;13.422;2023-02-28T06:51:20;6.5;75.6
78076;DHT22;67714;52.546;13.422;2023-02-28T06:53:21;6.7;73.7
78076;DHT22;67714;52.546;13.422;2023-02-28T06:55:22;6.7;73.2
78076;DHT22;67714;52.546;13.422;2023-02-28T06:57:23;7;72.6
78076;DHT22;67714;52.546;13.422;2023-02-28T06:59:25;7.5;72.1
78076;DHT22;67714;52.546;13.422;2023-02-28T07:01:26;8.2;69.4
78076;DHT22;67714;52.546;13.422;2023-02-28T07:03:28;9;66.9
78076;DHT22;67714;52.546;13.422;2023-02-28T07:05:29;9.9;64.1
78076;DHT22;67714;52.546;13.422;2023-02-28T07:07:30;10.7;60.7
78076;DHT22;67714;52.546;13.422;2023-02-28T07:09:32;11.2;59
78076;DHT22;67714;52.546;13.422;2023-02-28T07:11:34;11.7;57
78076;DHT22;67714;52.546;13.422;2023-02-28T07:13:36;12;56
78076;DHT22;67714;52.546;13.422;2023-02-28T07:15:37;12.2;54
78076;DHT22;67714;52.546;13.422;2023-02-28T07:17:39;11.2;51.9
78076;DHT22;67714;52.546;13.422;2023-02-28T07:19:41;9.1;55.4
78076;DHT22;67714;52.546;13.422;2023-02-28T07:21:43;7.5;61
78076;DHT22;67714;52.546;13.422;2023-02-28T07:23:44;6.2;65.8
78076;DHT22;67714;52.546;13.422;2023-02-28T07:25:45;5.4;69.6
78076;DHT22;67714;52.546;13.422;2023-02-28T07:27:47;4.8;72.5
78076;DHT22;67714;52.546;13.422;2023-02-28T07:29:48;4.3;74.6
78076;DHT22;67714;52.546;13.422;2023-02-28T07:31:49;4;76.5
78076;DHT22;67714;52.546;13.422;2023-02-28T07:33:50;3.8;77.9
78076;DHT22;67714;52.546;13.422;2023-02-28T07:35:59;3.6;79.1
78076;DHT22;67714;52.546;13.422;2023-02-28T07:38:00;3.5;80.2
78076;DHT22;67714;52.546;13.422;2023-02-28T07:40:03;3.4;80.5
78076;DHT22;67714;52.546;13.422;2023-02-28T07:42:05;3.3;80.8
78076;DHT22;67714;52.546;13.422;2023-02-28T07:44:06;3.4;79.9
78076;DHT22;67714;52.546;13.422;2023-02-28T07:46:14;3.4;79.7
78076;DHT22;67714;52.546;13.422;2023-02-28T07:48:15;3.4;79.2
78076;DHT22;67714;52.546;13.422;2023-02-28T07:50:17;3.4;79
78076;DHT22;67714;52.546;13.422;2023-02-28T07:52:18;3.4;78.7
78076;DHT22;67714;52.546;13.422;2023-02-28T07:54:19;3.4;78.8
78076;DHT22;67714;52.546;13.422;2023-02-28T07:56:21;3.4;78.4
78076;DHT22;67714;52.546;13.422;2023-02-28T07:58:24;3.4;78.5
78076;DHT22;67714;52.546;13.422;2023-02-28T08:00:25;3.4;77.8
78076;DHT22;67714;52.546;13.422;2023-02-28T08:02:27;3.5;77.4
78076;DHT22;67714;52.546;13.422;2023-02-28T08:04:31;3.5;76.8
78076;DHT22;67714;52.546;13.422;2023-02-28T08:06:32;3.5;76.4
78076;DHT22;67714;52.546;13.422;2023-02-28T08:08:33;3.6;76
78076;DHT22;67714;52.546;13.422;2023-02-28T08:10:36;3.6;76.2
78076;DHT22;67714;52.546;13.422;2023-02-28T08:12:37;3.6;75.8
78076;DHT22;67714;52.546;13.422;2023-02-28T08:14:38;3.7;74.4
78076;DHT22;67714;52.546;13.422;2023-02-28T08:16:40;3.7;73.8
78076;DHT22;67714;52.546;13.422;2023-02-28T08:18:41;3.7;73.7
78076;DHT22;67714;52.546;13.422;2023-02-28T08:20:42;3.8;72.8
78076;DHT22;67714;52.546;13.422;2023-02-28T08:22:44;3.8;71.6
78076;DHT22;67714;52.546;13.422;2023-02-28T08:24:45;3.9;70.8
78076;DHT22;67714;52.546;13.422;2023-02-28T08:26:46;3.9;71.1
78076;DHT22;67714;52.546;13.422;2023-02-28T08:28:48;3.9;71
78076;DHT22;67714;52.546;13.422;2023-02-28T08:30:49;4;70.5
78076;DHT22;67714;52.546;13.422;2023-02-28T08:32:52;4.1;67.9
78076;DHT22;67714;52.546;13.422;2023-02-28T08:34:54;4.1;67.7
78076;DHT22;67714;52.546;13.422;2023-02-28T08:36:59;4.2;66.2
78076;DHT22;67714;52.546;13.422;2023-02-28T08:39:00;4.2;64.8
78076;DHT22;67714;52.546;13.422;2023-02-28T08:41:03;4.3;63.8
78076;DHT22;67714;52.546;13.422;2023-02-28T08:43:05;4.2;64.2
78076;DHT22;67714;52.546;13.422;2023-02-28T08:45:07;4.2;64.9
78076;DHT22;67714;52.546;13.422;2023-02-28T08:47:08;4.2;64.5
78076;DHT22;67714;52.546;13.422;2023-02-28T08:49:10;4.3;64.3
78076;DHT22;67714;52.546;13.422;2023-02-28T08:51:14;4.3;64.1
78076;DHT22;67714;52.546;13.422;2023-02-28T08:53:15;4.3;63.5
78076;DHT22;67714;52.546;13.422;2023-02-28T08:55:16;4.4;62.6
78076;DHT22;67714;52.546;13.422;2023-02-28T08:57:17;4.4;61
78076;DHT22;67714;52.546;13.422;2023-02-28T08:59:19;4.5;59.9
78076;DHT22;67714;52.546;13.422;2023-02-28T09:01:22;4.5;60
78076;DHT22;67714;52.546;13.422;2023-02-28T09:03:24;4.5;58.2
78076;DHT22;67714;52.546;13.422;2023-02-28T09:05:25;4.5;58.8
78076;DHT22;67714;52.546;13.422;2023-02-28T09:07:26;4.6;58.6
78076;DHT22;67714;52.546;13.422;2023-02-28T09:09:28;4.6;58.9
78076;DHT22;67714;52.546;13.422;2023-02-28T09:11:30;4.6;58.7
78076;DHT22;67714;52.546;13.422;2023-02-28T09:13:32;4.6;59.1
78076;DHT22;67714;52.546;13.422;2023-02-28T09:15:36;4.6;57.8
78076;DHT22;67714;52.546;13.422;2023-02-28T09:17:38;4.6;58.1
78076;DHT22;67714;52.546;13.422;2023-02-28T09:19:39;4.7;58.6
78076;DHT22;67714;52.546;13.422;2023-02-28T09:21:40;4.7;58.6
78076;DHT22;67714;52.546;13.422;2023-02-28T09:23:42;4.7;57.1
78076;DHT22;67714;52.546;13.422;2023-02-28T09:25:45;4.8;57.3
78076;DHT22;67714;52.546;13.422;2023-02-28T09:27:47;4.8;57.6
78076;DHT22;67714;52.546;13.422;2023-02-28T09:29:49;4.8;57.8
78076;DHT22;67714;52.546;13.422;2023-02-28T09:31:50;4.8;57.7
78076;DHT22;67714;52.546;13.422;2023-02-28T09:33:53;4.8;57.4
78076;DHT22;67714;52.546;13.422;2023-02-28T09:35:58;4.8;57.6
78076;DHT22;67714;52.546;13.422;2023-02-28T09:38:01;4.8;57.3
78076;DHT22;67714;52.546;13.422;2023-02-28T09:40:02;4.9;55.7
78076;DHT22;67714;52.546;13.422;2023-02-28T09:42:04;4.9;55.9
78076;DHT22;67714;52.546;13.422;2023-02-28T09:44:07;4.9;55.9
78076;DHT22;67714;52.546;13.422;2023-02-28T09:46:18;4.9;55.9
78076;DHT22;67714;52.546;13.422;2023-02-28T09:48:25;4.9;55.1
78076;DHT22;67714;52.546;13.422;2023-02-28T09:50:30;4.9;55.3
78076;DHT22;67714;52.546;13.422;2023-02-28T09:52:36;5;55.2
78076;DHT22;67714;52.546;13.422;2023-02-28T09:54:38;4.9;55.1
78076;DHT22;67714;52.546;13.422;2023-02-28T09:56:40;4.9;54.8
78076;DHT22;67714;52.546;13.422;2023-02-28T09:58:46;4.9;55.2
78076;DHT22;67714;52.546;13.422;2023-02-28T10:00:54;4.9;55.3
78076;DHT22;67714;52.546;13.422;2023-02-28T10:03:04;4.9;54.6
78076;DHT22;67714;52.546;13.422;2023-02-28T10:05:08;4.9;54.9
78076;DHT22;67714;52.546;13.422;2023-02-28T10:07:25;4.9;55.3
78076;DHT22;67714;52.546;13.422;2023-02-28T10:09:33;4.9;55
78076;DHT22;67714;52.546;13.422;2023-02-28T10:11:37;5;55.1
78076;DHT22;67714;52.546;13.422;2023-02-28T10:13:49;5;54.8
78076;DHT22;67714;52.546;13.422;2023-02-28T10:15:55;5;54.9
78076;DHT22;67714;52.546;13.422;2023-02-28T10:18:01;5.1;54.8
78076;DHT22;67714;52.546;13.422;2023-02-28T10:20:09;5.1;54.8
78076;DHT22;67714;52.546;13.422;2023-02-28T10:22:14;5.1;54.4
78076;DHT22;67714;52.546;13.422;2023-02-28T10:24:21;5.1;54.6
78076;DHT22;67714;52.546;13.422;2023-02-28T10:26:27;5.1;55
78076;DHT22;67714;52.546;13.422;2023-02-28T10:28:32;5.2;54.4
78076;DHT22;67714;52.546;13.422;2023-02-28T10:30:36;5.2;54.4
78076;DHT22;67714;52.546;13.422;2023-02-28T10:32:39;5.2;54.3
78076;DHT22;67714;52.546;13.422;2023-02-28T10:34:42;5.2;54.4
78076;DHT22;67714;52.546;13.422;2023-02-28T10:36:44;5.2;54.3
78076;DHT22;67714;52.546;13.422;2023-02-28T10:38:47;5.2;53.9
78076;DHT22;67714;52.546;13.422;2023-02-28T10:40:50;5.2;54.2
78076;DHT22;67714;52.546;13.422;2023-02-28T10:43:02;5.2;54.2
78076;DHT22;67714;52.546;13.422;2023-02-28T10:45:06;5.2;54.2
78076;DHT22;67714;52.546;13.422;2023-02-28T10:47:13;5.2;54.4
78076;DHT22;67714;52.546;13.422;2023-02-28T10:49:19;5.2;54.3
78076;DHT22;67714;52.546;13.422;2023-02-28T10:51:22;5.2;54.2
78076;DHT22;67714;52.546;13.422;2023-02-28T10:53:30;5.2;54.6
78076;DHT22;67714;52.546;13.422;2023-02-28T10:55:31;5.2;54.3
78076;DHT22;67714;52.546;13.422;2023-02-28T10:57:38;5.3;54.1
78076;DHT22;67714;52.546;13.422;2023-02-28T10:59:52;5.3;53.7
78076;DHT22;67714;52.546;13.422;2023-02-28T11:01:53;5.3;53.6
78076;DHT22;67714;52.546;13.422;2023-02-28T11:03:55;5.3;53.9
78076;DHT22;67714;52.546;13.422;2023-02-28T11:05:58;5.3;54.2
78076;DHT22;67714;52.546;13.422;2023-02-28T11:08:06;5.3;53.7
78076;DHT22;67714;52.546;13.422;2023-02-28T11:10:18;5.4;53.3
78076;DHT22;67714;52.546;13.422;2023-02-28T11:12:23;5.5;53.5
78076;DHT22;67714;52.546;13.422;2023-02-28T11:14:27;5.5;53.6
78076;DHT22;67714;52.546;13.422;2023-02-28T11:16:32;5.4;53.5
78076;DHT22;67714;52.546;13.422;2023-02-28T11:18:38;5.4;53.5
78076;DHT22;67714;52.546;13.422;2023-02-28T11:20:41;5.4;53.9
78076;DHT22;67714;52.546;13.422;2023-02-28T11:22:44;5.3;54.2
78076;DHT22;67714;52.546;13.422;2023-02-28T11:24:47;5.2;54.6
78076;DHT22;67714;52.546;13.422;2023-02-28T11:26:50;5.2;54.5
78076;DHT22;67714;52.546;13.422;2023-02-28T11:29:05;5.4;54.1
78076;DHT22;67714;52.546;13.422;2023-02-28T11:31:16;5.5;53.9
78076;DHT22;67714;52.546;13.422;2023-02-28T11:33:41;5.5;53.6
78076;DHT22;67714;52.546;13.422;2023-02-28T11:35:43;5.5;53.8
78076;DHT22;67714;52.546;13.422;2023-02-28T11:37:44;5.5;53.8
78076;DHT22;67714;52.546;13.422;2023-02-28T11:39:46;5.5;53.8
78076;DHT22;67714;52.546;13.422;2023-02-28T11:41:55;5.4;54
78076;DHT22;67714;52.546;13.422;2023-02-28T11:44:05;5.4;54.1
78076;DHT22;67714;52.546;13.422;2023-02-28T11:46:18;5.4;54.6
78076;DHT22;67714;52.546;13.422;2023-02-28T11:48:23;5.4;54.2
78076;DHT22;67714;52.546;13.422;2023-02-28T11:50:49;5.5;54.3
78076;DHT22;67714;52.546;13.422;2023-02-28T11:52:54;5.5;53.8
78076;DHT22;67714;52.546;13.422;2023-02-28T11:55:02;5.6;53
78076;DHT22;67714;52.546;13.422;2023-02-28T11:57:16;5.7;52.6
78076;DHT22;67714;52.546;13.422;2023-02-28T11:59:35;5.7;52.2
78076;DHT22;67714;52.546;13.422;2023-02-28T12:01:51;5.6;52.9
78076;DHT22;67714;52.546;13.422;2023-02-28T12:03:59;5.7;53
78076;DHT22;67714;52.546;13.422;2023-02-28T12:06:09;5.7;52.5
78076;DHT22;67714;52.546;13.422;2023-02-28T12:08:23;5.6;53.1
78076;DHT22;67714;52.546;13.422;2023-02-28T12:10:29;5.6;53.4
78076;DHT22;67714;52.546;13.422;2023-02-28T12:12:38;5.7;53.3
78076;DHT22;67714;52.546;13.422;2023-02-28T12:14:47;5.7;52.9
78076;DHT22;67714;52.546;13.422;2023-02-28T12:16:59;5.7;53.2
78076;DHT22;67714;52.546;13.422;2023-02-28T12:19:09;5.6;53.3
78076;DHT22;67714;52.546;13.422;2023-02-28T12:21:18;5.6;52.6
